createdAt,value
2022-11-03T00:00:22.004Z,1010.02
2022-11-03T00:01:22.083Z,1010.01
2022-11-03T00:02:22.233Z,1010.05
2022-11-03T00:03:21.966Z,1010.00
2022-11-03T00:04:21.968Z,1010.03
2022-11-03T00:05:21.970Z,1010.02
2022-11-03T00:06:21.937Z,1009.95
2022-11-03T00:07:21.934Z,1010.04
2022-11-03T00:08:21.918Z,1010.05
2022-11-03T00:09:21.927Z,1009.92
2022-11-03T00:10:21.938Z,1009.98
2022-11-03T00:11:21.892Z,1010.03
2022-11-03T00:12:21.869Z,1010.04
2022-11-03T00:13:21.865Z,1010.09
2022-11-03T00:14:21.869Z,1010.09
2022-11-03T00:15:21.848Z,1010.07
2022-11-03T00:16:21.832Z,1010.03
2022-11-03T00:17:21.839Z,1010.08
2022-11-03T00:18:21.802Z,1010.09
2022-11-03T00:19:21.791Z,1010.06
2022-11-03T00:20:21.783Z,1010.09
2022-11-03T00:21:21.777Z,1010.06
2022-11-03T00:22:21.776Z,1010.02
2022-11-03T00:23:21.754Z,1009.99
2022-11-03T00:24:21.745Z,1009.93
2022-11-03T00:25:21.738Z,1009.94
2022-11-03T00:26:21.840Z,1009.97
2022-11-03T00:27:21.726Z,1009.96
2022-11-03T00:28:21.709Z,1009.95
2022-11-03T00:29:21.690Z,1009.99
2022-11-03T00:30:21.673Z,1010.01
2022-11-03T00:31:21.667Z,1010.06
2022-11-03T00:32:21.665Z,1010.09
2022-11-03T00:33:21.657Z,1009.93
2022-11-03T00:34:21.650Z,1009.99
2022-11-03T00:35:21.616Z,1010.01
2022-11-03T00:36:21.636Z,1009.88
2022-11-03T00:37:21.603Z,1009.88
2022-11-03T00:38:21.591Z,1009.90
2022-11-03T00:39:21.602Z,1009.94
2022-11-03T00:40:21.601Z,1009.94
2022-11-03T00:41:21.558Z,1009.94
2022-11-03T00:42:21.591Z,1009.95
2022-11-03T00:43:21.532Z,1009.95
2022-11-03T00:44:21.547Z,1009.98
2022-11-03T00:45:21.514Z,1009.95
2022-11-03T00:46:21.508Z,1010.01
2022-11-03T00:47:24.198Z,1009.98
2022-11-03T00:48:21.511Z,1010.01
2022-11-03T00:49:21.473Z,1010.01
2022-11-03T00:50:21.455Z,1009.99
2022-11-03T00:51:21.461Z,1010.02
2022-11-03T00:52:21.447Z,1009.99
2022-11-03T00:53:21.433Z,1009.93
2022-11-03T00:54:21.433Z,1009.93
2022-11-03T00:55:21.432Z,1009.95
2022-11-03T00:56:21.395Z,1009.97
2022-11-03T00:57:21.384Z,1009.99
2022-11-03T00:58:21.389Z,1009.93
2022-11-03T00:59:21.354Z,1009.93
2022-11-03T01:00:21.354Z,1009.89
2022-11-03T01:01:21.675Z,1009.90
2022-11-03T01:02:21.390Z,1009.85
2022-11-03T01:03:21.325Z,1009.86
2022-11-03T01:04:21.308Z,1009.83
2022-11-03T01:05:21.303Z,1009.81
2022-11-03T01:06:21.292Z,1009.84
2022-11-03T01:07:21.275Z,1009.78
2022-11-03T01:08:23.709Z,1009.77
2022-11-03T01:09:22.321Z,1009.74
2022-11-03T01:10:21.241Z,1009.74
2022-11-03T01:11:21.236Z,1009.69
2022-11-03T01:12:21.215Z,1009.72
2022-11-03T01:13:21.216Z,1009.71
2022-11-03T01:14:21.219Z,1009.69
2022-11-03T01:15:21.188Z,1009.71
2022-11-03T01:16:21.174Z,1009.72
2022-11-03T01:17:21.187Z,1009.71
2022-11-03T01:18:21.168Z,1009.68
2022-11-03T01:19:21.141Z,1009.65
2022-11-03T01:20:21.143Z,1009.62
2022-11-03T01:21:21.126Z,1009.64
2022-11-03T01:22:21.126Z,1009.65
2022-11-03T01:23:21.093Z,1009.60
2022-11-03T01:24:21.097Z,1009.51
2022-11-03T01:25:21.086Z,1009.57
2022-11-03T01:26:21.060Z,1009.52
2022-11-03T01:27:21.049Z,1009.53
2022-11-03T01:28:21.067Z,1009.55
2022-11-03T01:29:21.048Z,1009.55
2022-11-03T01:30:21.040Z,1009.56
2022-11-03T01:31:21.013Z,1009.53
2022-11-03T01:32:21.004Z,1009.58
2022-11-03T01:33:20.994Z,1009.58
2022-11-03T01:34:20.992Z,1009.57
2022-11-03T01:35:20.976Z,1009.59
2022-11-03T01:36:20.959Z,1009.57
2022-11-03T01:37:20.944Z,1009.53
2022-11-03T01:38:20.938Z,1009.54
2022-11-03T01:39:20.927Z,1009.57
2022-11-03T01:40:20.921Z,1009.53
2022-11-03T01:41:20.907Z,1009.52
2022-11-03T01:42:20.924Z,1009.53
2022-11-03T01:43:20.902Z,1009.51
2022-11-03T01:44:20.867Z,1009.49
2022-11-03T01:45:20.868Z,1009.47
2022-11-03T01:46:20.877Z,1009.49
2022-11-03T01:47:20.832Z,1009.46
2022-11-03T01:48:20.822Z,1009.46
2022-11-03T01:49:20.812Z,1009.45
2022-11-03T01:50:20.831Z,1009.40
2022-11-03T01:51:20.797Z,1009.37
2022-11-03T01:52:20.784Z,1009.35
2022-11-03T01:53:20.787Z,1009.37
2022-11-03T01:54:20.786Z,1009.35
2022-11-03T01:55:20.756Z,1009.36
2022-11-03T01:56:20.776Z,1009.34
2022-11-03T01:57:20.722Z,1009.35
2022-11-03T01:58:20.716Z,1009.34
2022-11-03T01:59:20.704Z,1009.29
2022-11-03T02:00:20.717Z,1009.28
2022-11-03T02:01:20.870Z,1009.30
2022-11-03T02:02:20.807Z,1009.30
2022-11-03T02:03:20.676Z,1009.30
2022-11-03T02:04:20.646Z,1009.25
2022-11-03T02:05:20.644Z,1009.26
2022-11-03T02:06:20.642Z,1009.23
2022-11-03T02:07:20.620Z,1009.19
2022-11-03T02:08:20.613Z,1009.17
2022-11-03T02:09:20.605Z,1009.13
2022-11-03T02:10:20.593Z,1009.18
2022-11-03T02:11:20.588Z,1009.10
2022-11-03T02:12:20.563Z,1009.05
2022-11-03T02:13:20.556Z,1008.97
2022-11-03T02:14:20.550Z,1008.97
2022-11-03T02:15:20.552Z,1008.96
2022-11-03T02:16:20.540Z,1008.98
2022-11-03T02:17:20.538Z,1009.00
2022-11-03T02:18:20.516Z,1008.97
2022-11-03T02:19:20.499Z,1008.94
2022-11-03T02:20:20.478Z,1008.94
2022-11-03T02:21:20.477Z,1008.91
2022-11-03T02:22:20.458Z,1008.90
2022-11-03T02:23:20.452Z,1008.93
2022-11-03T02:24:20.443Z,1008.90
2022-11-03T02:25:20.451Z,1008.88
2022-11-03T02:26:20.429Z,1008.91
2022-11-03T02:27:20.404Z,1008.86
2022-11-03T02:28:20.398Z,1008.83
2022-11-03T02:29:20.380Z,1008.77
2022-11-03T02:30:20.377Z,1008.83
2022-11-03T02:31:20.358Z,1008.78
2022-11-03T02:32:20.353Z,1008.76
2022-11-03T02:33:20.331Z,1008.68
2022-11-03T02:34:20.354Z,1008.69
2022-11-03T02:35:20.327Z,1008.63
2022-11-03T02:36:20.306Z,1008.60
2022-11-03T02:37:20.303Z,1008.57
2022-11-03T02:38:20.278Z,1008.60
2022-11-03T02:39:20.271Z,1008.52
2022-11-03T02:40:20.255Z,1008.49
2022-11-03T02:41:20.273Z,1008.51
2022-11-03T02:42:20.239Z,1008.48
2022-11-03T02:43:20.225Z,1008.44
2022-11-03T02:44:20.215Z,1008.44
2022-11-03T02:45:20.220Z,1008.43
2022-11-03T02:46:20.196Z,1008.39
2022-11-03T02:47:20.188Z,1008.42
2022-11-03T02:48:20.173Z,1008.41
2022-11-03T02:49:20.168Z,1008.40
2022-11-03T02:50:20.183Z,1008.35
2022-11-03T02:51:20.142Z,1008.35
2022-11-03T02:52:20.147Z,1008.35
2022-11-03T02:53:20.120Z,1008.34
2022-11-03T02:54:20.105Z,1008.33
2022-11-03T02:55:20.090Z,1008.30
2022-11-03T02:56:20.090Z,1008.28
2022-11-03T02:57:20.096Z,1008.27
2022-11-03T02:58:20.077Z,1008.25
2022-11-03T02:59:20.055Z,1008.27
2022-11-03T03:00:20.064Z,1008.24
2022-11-03T03:01:20.253Z,1008.22
2022-11-03T03:02:20.104Z,1008.19
2022-11-03T03:03:20.035Z,1008.22
2022-11-03T03:04:19.997Z,1008.22
2022-11-03T03:05:19.994Z,1008.24
2022-11-03T03:06:33.879Z,1008.23
2022-11-03T03:07:29.266Z,1008.20
2022-11-03T03:08:19.950Z,1008.15
2022-11-03T03:09:19.969Z,1008.18
2022-11-03T03:10:19.944Z,1008.14
2022-11-03T03:11:19.979Z,1008.15
2022-11-03T03:12:19.933Z,1008.15
2022-11-03T03:13:19.911Z,1008.18
2022-11-03T03:14:19.913Z,1008.16
2022-11-03T03:15:19.886Z,1008.13
2022-11-03T03:16:19.873Z,1008.16
2022-11-03T03:17:19.852Z,1008.17
2022-11-03T03:18:19.850Z,1008.04
2022-11-03T03:19:19.862Z,1008.07
2022-11-03T03:20:19.826Z,1008.03
2022-11-03T03:21:19.806Z,1008.01
2022-11-03T03:22:19.819Z,1008.01
2022-11-03T03:23:19.786Z,1007.92
2022-11-03T03:24:19.802Z,1007.97
2022-11-03T03:25:19.772Z,1007.97
2022-11-03T03:26:19.759Z,1007.90
2022-11-03T03:27:19.743Z,1007.89
2022-11-03T03:28:19.766Z,1007.89
2022-11-03T03:29:19.746Z,1007.84
2022-11-03T03:30:19.727Z,1007.89
2022-11-03T03:31:33.397Z,1007.84
2022-11-03T03:32:19.699Z,1007.81
2022-11-03T03:33:19.737Z,1007.83
2022-11-03T03:34:36.231Z,1007.81
2022-11-03T03:35:20.651Z,1007.81
2022-11-03T03:36:19.645Z,1007.81
2022-11-03T03:37:19.641Z,1007.78
2022-11-03T03:38:19.647Z,1007.74
2022-11-03T03:39:19.611Z,1007.75
2022-11-03T03:40:19.611Z,1007.72
2022-11-03T03:41:19.608Z,1007.76
2022-11-03T03:42:19.581Z,1007.78
2022-11-03T03:43:19.596Z,1007.73
2022-11-03T03:44:19.558Z,1007.70
2022-11-03T03:45:19.552Z,1007.67
2022-11-03T03:46:19.557Z,1007.72
2022-11-03T03:47:19.536Z,1007.72
2022-11-03T03:48:19.522Z,1007.62
2022-11-03T03:49:19.533Z,1007.65
2022-11-03T03:50:19.511Z,1007.65
2022-11-03T03:51:19.486Z,1007.63
2022-11-03T03:52:19.505Z,1007.64
2022-11-03T03:53:19.462Z,1007.65
2022-11-03T03:54:19.497Z,1007.61
2022-11-03T03:55:19.491Z,1007.59
2022-11-03T03:56:19.442Z,1007.57
2022-11-03T03:57:19.417Z,1007.58
2022-11-03T03:58:19.417Z,1007.55
2022-11-03T03:59:19.403Z,1007.57
2022-11-03T04:00:19.398Z,1007.60
2022-11-03T04:01:19.537Z,1007.60
2022-11-03T04:02:19.477Z,1007.61
2022-11-03T04:03:19.356Z,1007.57
2022-11-03T04:04:19.355Z,1007.56
2022-11-03T04:05:19.361Z,1007.53
2022-11-03T04:06:19.323Z,1007.56
2022-11-03T04:07:19.316Z,1007.56
2022-11-03T04:08:19.306Z,1007.53
2022-11-03T04:09:19.309Z,1007.52
2022-11-03T04:10:19.302Z,1007.57
2022-11-03T04:11:19.286Z,1007.53
2022-11-03T04:12:19.272Z,1007.49
2022-11-03T04:13:19.247Z,1007.51
2022-11-03T04:14:19.232Z,1007.50
2022-11-03T04:15:19.222Z,1007.50
2022-11-03T04:16:19.212Z,1007.44
2022-11-03T04:17:19.206Z,1007.48
2022-11-03T04:18:19.202Z,1007.46
2022-11-03T04:19:19.182Z,1007.44
2022-11-03T04:20:19.182Z,1007.43
2022-11-03T04:21:19.172Z,1007.41
2022-11-03T04:22:19.169Z,1007.44
2022-11-03T04:23:19.134Z,1007.46
2022-11-03T04:24:19.129Z,1007.46
2022-11-03T04:25:19.133Z,1007.42
2022-11-03T04:26:19.142Z,1007.44
2022-11-03T04:27:19.094Z,1007.44
2022-11-03T04:28:19.076Z,1007.45
2022-11-03T04:29:19.072Z,1007.44
2022-11-03T04:30:19.086Z,1007.46
2022-11-03T04:31:19.053Z,1007.47
2022-11-03T04:32:19.046Z,1007.49
2022-11-03T04:33:19.054Z,1007.42
2022-11-03T04:34:19.021Z,1007.37
2022-11-03T04:35:19.017Z,1007.36
2022-11-03T04:36:19.024Z,1007.33
2022-11-03T04:37:18.979Z,1007.35
2022-11-03T04:38:18.967Z,1007.35
2022-11-03T04:39:18.986Z,1007.32
2022-11-03T04:40:18.947Z,1007.31
2022-11-03T04:41:18.939Z,1007.28
2022-11-03T04:42:18.952Z,1007.25
2022-11-03T04:43:18.926Z,1007.25
2022-11-03T04:44:18.912Z,1007.22
2022-11-03T04:45:18.917Z,1007.21
2022-11-03T04:46:18.883Z,1007.21
2022-11-03T04:47:18.876Z,1007.19
2022-11-03T04:48:18.861Z,1007.20
2022-11-03T04:49:18.861Z,1007.16
2022-11-03T04:50:18.841Z,1007.16
2022-11-03T04:51:18.857Z,1007.22
2022-11-03T04:52:18.842Z,1007.18
2022-11-03T04:53:18.816Z,1007.20
2022-11-03T04:54:18.824Z,1007.12
2022-11-03T04:55:18.794Z,1007.07
2022-11-03T04:56:18.786Z,1007.06
2022-11-03T04:57:18.774Z,1007.06
2022-11-03T04:58:18.786Z,1007.06
2022-11-03T04:59:18.764Z,1007.03
2022-11-03T05:00:18.738Z,1007.06
2022-11-03T05:01:23.758Z,1007.09
2022-11-03T05:02:19.728Z,1007.07
2022-11-03T05:03:18.695Z,1007.05
2022-11-03T05:04:18.684Z,1007.00
2022-11-03T05:05:18.688Z,1007.05
2022-11-03T05:06:18.692Z,1007.05
2022-11-03T05:07:18.685Z,1006.98
2022-11-03T05:08:18.642Z,1007.01
2022-11-03T05:09:18.645Z,1006.97
2022-11-03T05:10:18.640Z,1007.00
2022-11-03T05:11:18.610Z,1006.94
2022-11-03T05:12:18.605Z,1006.93
2022-11-03T05:13:18.593Z,1006.85
2022-11-03T05:14:18.612Z,1006.77
2022-11-03T05:15:18.606Z,1006.73
2022-11-03T05:16:18.571Z,1006.72
2022-11-03T05:17:18.563Z,1006.70
2022-11-03T05:18:18.537Z,1006.74
2022-11-03T05:19:18.556Z,1006.70
2022-11-03T05:20:18.510Z,1006.68
2022-11-03T05:21:18.502Z,1006.69
2022-11-03T05:22:18.502Z,1006.64
2022-11-03T05:23:18.483Z,1006.65
2022-11-03T05:24:18.481Z,1006.64
2022-11-03T05:25:18.503Z,1006.60
2022-11-03T05:26:18.455Z,1006.60
2022-11-03T05:27:18.454Z,1006.57
2022-11-03T05:28:18.433Z,1006.56
2022-11-03T05:29:18.438Z,1006.51
2022-11-03T05:30:18.422Z,1006.51
2022-11-03T05:31:18.398Z,1006.47
2022-11-03T05:32:18.389Z,1006.44
2022-11-03T05:33:18.390Z,1006.46
2022-11-03T05:34:18.375Z,1006.44
2022-11-03T05:35:18.362Z,1006.45
2022-11-03T05:36:18.351Z,1006.48
2022-11-03T05:37:23.329Z,1006.45
2022-11-03T05:38:19.316Z,1006.49
2022-11-03T05:39:18.317Z,1006.38
2022-11-03T05:40:18.319Z,1006.36
2022-11-03T05:41:18.300Z,1006.39
2022-11-03T05:42:18.315Z,1006.33
2022-11-03T05:43:18.278Z,1006.33
2022-11-03T05:44:18.265Z,1006.32
2022-11-03T05:45:18.250Z,1006.30
2022-11-03T05:46:18.261Z,1006.30
2022-11-03T05:47:18.225Z,1006.27
2022-11-03T05:48:18.229Z,1006.25
2022-11-03T05:49:18.201Z,1006.22
2022-11-03T05:50:18.185Z,1006.28
2022-11-03T05:51:18.187Z,1006.16
2022-11-03T05:52:18.194Z,1006.23
2022-11-03T05:53:18.182Z,1006.19
2022-11-03T05:54:19.654Z,1006.19
2022-11-03T05:55:18.155Z,1006.26
2022-11-03T05:56:18.125Z,1006.19
2022-11-03T05:57:18.119Z,1006.19
2022-11-03T05:58:18.105Z,1006.20
2022-11-03T05:59:18.108Z,1006.19
2022-11-03T06:00:18.090Z,1006.17
2022-11-03T06:01:18.164Z,1006.01
2022-11-03T06:02:18.282Z,1006.12
2022-11-03T06:03:18.097Z,1006.18
2022-11-03T06:04:18.087Z,1006.19
2022-11-03T06:05:18.056Z,1006.16
2022-11-03T06:06:18.021Z,1006.15
2022-11-03T06:07:18.015Z,1006.18
2022-11-03T06:08:18.090Z,1006.16
2022-11-03T06:09:18.000Z,1006.18
2022-11-03T06:10:18.018Z,1006.17
2022-11-03T06:11:17.979Z,1006.18
2022-11-03T06:12:17.964Z,1006.18
2022-11-03T06:13:17.968Z,1006.16
2022-11-03T06:14:21.240Z,1006.12
2022-11-03T06:15:18.940Z,1006.06
2022-11-03T06:16:17.921Z,1006.06
2022-11-03T06:17:17.906Z,1005.96
2022-11-03T06:18:17.908Z,1005.97
2022-11-03T06:19:17.878Z,1005.91
2022-11-03T06:20:17.890Z,1005.91
2022-11-03T06:21:17.857Z,1005.85
2022-11-03T06:22:17.880Z,1005.83
2022-11-03T06:23:17.848Z,1005.80
2022-11-03T06:24:17.838Z,1005.87
2022-11-03T06:25:17.804Z,1005.83
2022-11-03T06:26:17.810Z,1005.84
2022-11-03T06:27:17.816Z,1005.91
2022-11-03T06:28:17.845Z,1005.91
2022-11-03T06:29:17.788Z,1005.80
2022-11-03T06:30:17.765Z,1005.83
2022-11-03T06:31:21.917Z,1005.78
2022-11-03T06:32:18.738Z,1005.83
2022-11-03T06:33:17.752Z,1005.80
2022-11-03T06:34:17.748Z,1005.80
2022-11-03T06:35:17.710Z,1005.82
2022-11-03T06:36:17.734Z,1005.83
2022-11-03T06:37:17.696Z,1005.79
2022-11-03T06:38:17.675Z,1005.79
2022-11-03T06:39:17.695Z,1005.84
2022-11-03T06:40:17.662Z,1005.81
2022-11-03T06:41:17.638Z,1005.78
2022-11-03T06:42:17.642Z,1005.79
2022-11-03T06:43:17.636Z,1005.77
2022-11-03T06:44:17.605Z,1005.73
2022-11-03T06:45:17.600Z,1005.78
2022-11-03T06:46:17.611Z,1005.70
2022-11-03T06:47:17.625Z,1005.69
2022-11-03T06:48:17.570Z,1005.67
2022-11-03T06:49:17.564Z,1005.70
2022-11-03T06:50:17.560Z,1005.71
2022-11-03T06:51:17.549Z,1005.72
2022-11-03T06:52:17.548Z,1005.63
2022-11-03T06:53:17.540Z,1005.64
2022-11-03T06:54:17.494Z,1005.55
2022-11-03T06:55:17.485Z,1005.49
2022-11-03T06:56:17.508Z,1005.29
2022-11-03T06:57:17.579Z,1005.17
2022-11-03T06:58:17.527Z,1005.13
2022-11-03T06:59:17.447Z,1005.03
2022-11-03T07:00:33.562Z,1005.08
2022-11-03T07:01:18.575Z,1005.06
2022-11-03T07:02:17.563Z,1005.10
2022-11-03T07:03:17.420Z,1005.06
2022-11-03T07:04:17.386Z,1005.09
2022-11-03T07:05:17.426Z,1005.17
2022-11-03T07:06:17.392Z,1005.18
2022-11-03T07:07:17.358Z,1005.10
2022-11-03T07:08:17.363Z,1005.12
2022-11-03T07:09:17.376Z,1005.19
2022-11-03T07:10:17.341Z,1005.15
2022-11-03T07:11:17.341Z,1005.17
2022-11-03T07:12:17.293Z,1005.18
2022-11-03T07:13:17.294Z,1005.21
2022-11-03T07:14:17.330Z,1005.07
2022-11-03T07:15:17.278Z,1005.12
2022-11-03T07:16:18.830Z,1005.12
2022-11-03T07:17:17.244Z,1005.12
2022-11-03T07:18:17.229Z,1005.10
2022-11-03T07:19:17.267Z,1005.15
2022-11-03T07:20:17.244Z,1005.14
2022-11-03T07:21:17.208Z,1005.12
2022-11-03T07:22:17.316Z,1005.13
2022-11-03T07:23:17.176Z,1005.06
2022-11-03T07:24:17.188Z,1005.12
2022-11-03T07:25:17.791Z,1005.15
2022-11-03T07:26:17.184Z,1005.13
2022-11-03T07:27:17.145Z,1005.06
2022-11-03T07:28:17.124Z,1005.07
2022-11-03T07:29:17.109Z,1005.06
2022-11-03T07:30:17.199Z,1005.01
2022-11-03T07:31:17.089Z,1005.01
2022-11-03T07:32:17.136Z,1004.98
2022-11-03T07:33:17.150Z,1004.87
2022-11-03T07:34:17.276Z,1005.05
2022-11-03T07:35:17.063Z,1004.93
2022-11-03T07:36:17.417Z,1004.89
2022-11-03T07:37:17.108Z,1004.87
2022-11-03T07:38:17.138Z,1004.88
2022-11-03T07:39:17.276Z,1004.87
2022-11-03T07:40:17.000Z,1004.81
2022-11-03T07:41:17.007Z,1004.79
2022-11-03T07:42:17.008Z,1004.82
2022-11-03T07:43:16.981Z,1004.81
2022-11-03T07:44:16.969Z,1004.80
2022-11-03T07:45:16.937Z,1004.78
2022-11-03T07:46:16.933Z,1004.77
2022-11-03T07:47:16.951Z,1004.75
2022-11-03T07:48:16.916Z,1004.76
2022-11-03T07:49:16.986Z,1004.77
2022-11-03T07:50:16.875Z,1004.69
2022-11-03T07:51:16.943Z,1004.77
2022-11-03T07:52:16.863Z,1004.74
2022-11-03T07:53:19.008Z,1004.65
2022-11-03T07:54:17.878Z,1004.79
2022-11-03T07:55:16.841Z,1004.71
2022-11-03T07:56:16.854Z,1004.72
2022-11-03T07:57:16.846Z,1004.73
2022-11-03T07:58:16.815Z,1004.73
2022-11-03T07:59:16.930Z,1004.67
2022-11-03T08:00:16.780Z,1004.67
2022-11-03T08:01:16.810Z,1004.63
2022-11-03T08:02:16.926Z,1004.66
2022-11-03T08:03:16.780Z,1004.66
2022-11-03T08:04:16.755Z,1004.69
2022-11-03T08:05:16.836Z,1004.65
2022-11-03T08:06:19.790Z,1004.62
2022-11-03T08:07:16.709Z,1004.63
2022-11-03T08:08:16.731Z,1004.61
2022-11-03T08:09:16.678Z,1004.64
2022-11-03T08:10:16.742Z,1004.63
2022-11-03T08:11:16.663Z,1004.74
2022-11-03T08:12:16.652Z,1004.73
2022-11-03T08:13:16.646Z,1004.76
2022-11-03T08:14:16.638Z,1004.72
2022-11-03T08:15:16.604Z,1004.82
2022-11-03T08:16:16.648Z,1004.79
2022-11-03T08:17:16.809Z,1004.76
2022-11-03T08:18:16.594Z,1004.73
2022-11-03T08:19:16.574Z,1004.74
2022-11-03T08:20:16.541Z,1004.63
2022-11-03T08:21:16.570Z,1004.72
2022-11-03T08:22:16.544Z,1004.71
2022-11-03T08:23:32.237Z,1004.59
2022-11-03T08:24:17.843Z,1004.59
2022-11-03T08:25:16.504Z,1004.66
2022-11-03T08:26:16.513Z,1004.70
2022-11-03T08:27:16.595Z,1004.69
2022-11-03T08:28:16.484Z,1004.73
2022-11-03T08:29:16.451Z,1004.66
2022-11-03T08:30:16.444Z,1004.68
2022-11-03T08:31:16.879Z,1004.64
2022-11-03T08:32:16.528Z,1004.69
2022-11-03T08:33:17.289Z,1004.69
2022-11-03T08:34:16.398Z,1004.66
2022-11-03T08:35:17.275Z,1004.70
2022-11-03T08:36:16.391Z,1004.62
2022-11-03T08:37:16.815Z,1004.61
2022-11-03T08:38:16.360Z,1004.63
2022-11-03T08:39:16.398Z,1004.49
2022-11-03T08:40:16.349Z,1004.56
2022-11-03T08:41:16.331Z,1004.47
2022-11-03T08:42:16.326Z,1004.55
2022-11-03T08:43:16.351Z,1004.45
2022-11-03T08:44:16.291Z,1004.45
2022-11-03T08:45:16.283Z,1004.37
2022-11-03T08:46:18.025Z,1004.37
2022-11-03T08:47:16.268Z,1004.39
2022-11-03T08:48:16.241Z,1004.39
2022-11-03T08:49:16.233Z,1004.32
2022-11-03T08:50:16.284Z,1004.35
2022-11-03T08:51:18.802Z,1004.35
2022-11-03T08:52:16.265Z,1004.31
2022-11-03T08:53:16.176Z,1004.26
2022-11-03T08:54:16.239Z,1004.24
2022-11-03T08:55:16.178Z,1004.22
2022-11-03T08:56:19.248Z,1004.20
2022-11-03T08:57:17.825Z,1004.17
2022-11-03T08:58:16.139Z,1004.21
2022-11-03T08:59:16.137Z,1004.14
2022-11-03T09:00:16.117Z,1004.10
2022-11-03T09:01:16.287Z,1004.06
2022-11-03T09:02:16.097Z,1004.07
2022-11-03T09:03:16.092Z,1004.07
2022-11-03T09:04:16.103Z,1004.01
2022-11-03T09:05:16.065Z,1003.95
2022-11-03T09:06:16.133Z,1003.97
2022-11-03T09:07:16.078Z,1003.96
2022-11-03T09:11:15.997Z,1003.84
2022-11-03T09:12:16.019Z,1003.84
2022-11-03T09:13:15.971Z,1003.77
2022-11-03T09:14:15.951Z,1003.69
2022-11-03T09:15:15.946Z,1003.76
2022-11-03T09:16:16.918Z,1003.77
2022-11-03T09:17:15.903Z,1003.78
2022-11-03T09:18:15.923Z,1003.75
2022-11-03T09:19:15.921Z,1003.76
2022-11-03T09:20:15.882Z,1003.70
2022-11-03T09:21:15.881Z,1003.76
2022-11-03T09:22:15.848Z,1003.74
2022-11-03T09:23:15.859Z,1003.67
2022-11-03T09:24:15.848Z,1003.62
2022-11-03T09:25:15.914Z,1003.59
2022-11-03T09:26:15.821Z,1003.57
2022-11-03T09:27:15.806Z,1003.57
2022-11-03T09:28:15.792Z,1003.55
2022-11-03T09:29:15.798Z,1003.45
2022-11-03T09:30:15.874Z,1003.53
2022-11-03T09:31:15.776Z,1003.48
2022-11-03T09:32:21.808Z,1003.47
2022-11-03T09:33:16.755Z,1003.42
2022-11-03T09:34:15.726Z,1003.40
2022-11-03T09:35:16.305Z,1003.32
2022-11-03T09:36:15.869Z,1003.35
2022-11-03T09:37:15.707Z,1003.24
2022-11-03T09:38:15.717Z,1003.07
2022-11-03T09:39:15.672Z,1003.07
2022-11-03T09:40:15.671Z,1003.06
2022-11-03T09:41:26.441Z,1003.06
2022-11-03T09:42:16.695Z,1003.03
2022-11-03T09:43:15.639Z,1003.09
2022-11-03T09:44:15.634Z,1003.13
2022-11-03T09:45:15.624Z,1003.11
2022-11-03T09:46:15.655Z,1003.06
2022-11-03T09:47:15.610Z,1003.05
2022-11-03T09:48:15.570Z,1003.05
2022-11-03T09:49:15.581Z,1003.05
2022-11-03T09:50:15.542Z,1003.02
2022-11-03T09:51:15.553Z,1003.01
2022-11-03T09:52:15.545Z,1002.94
2022-11-03T09:53:15.540Z,1002.83
2022-11-03T09:54:15.543Z,1002.81
2022-11-03T09:55:15.492Z,1002.75
2022-11-03T09:56:15.554Z,1002.77
2022-11-03T09:57:15.489Z,1002.69
2022-11-03T09:58:15.903Z,1002.72
2022-11-03T09:59:15.428Z,1002.65
2022-11-03T10:00:15.447Z,1002.66
2022-11-03T10:01:15.660Z,1002.64
2022-11-03T10:02:15.470Z,1002.56
2022-11-03T10:03:15.426Z,1002.45
2022-11-03T10:04:15.541Z,1002.41
2022-11-03T10:06:15.596Z,1002.21
2022-11-03T10:07:15.411Z,1002.28
2022-11-03T10:08:18.417Z,1002.31
2022-11-03T10:09:16.336Z,1002.26
2022-11-03T10:10:15.696Z,1002.26
2022-11-03T10:11:15.320Z,1002.23
2022-11-03T10:12:15.287Z,1002.27
2022-11-03T10:13:16.328Z,1002.32
2022-11-03T10:14:15.274Z,1002.31
2022-11-03T10:15:15.260Z,1002.32
2022-11-03T10:16:15.269Z,1002.37
2022-11-03T10:17:15.347Z,1002.28
2022-11-03T10:18:15.222Z,1002.24
2022-11-03T10:19:15.261Z,1002.29
2022-11-03T10:20:15.224Z,1002.26
2022-11-03T10:21:15.198Z,1002.29
2022-11-03T10:22:15.188Z,1002.29
2022-11-03T10:23:15.177Z,1002.23
2022-11-03T10:24:15.156Z,1002.30
2022-11-03T10:25:15.213Z,1002.26
2022-11-03T10:26:15.240Z,1002.22
2022-11-03T10:27:15.131Z,1002.15
2022-11-03T10:28:15.317Z,1002.16
2022-11-03T10:29:15.141Z,1002.13
2022-11-03T10:30:15.100Z,1002.00
2022-11-03T10:31:15.079Z,1001.99
2022-11-03T10:32:15.140Z,1001.96
2022-11-03T10:33:15.157Z,1001.91
2022-11-03T10:34:15.978Z,1001.80
2022-11-03T10:35:15.042Z,1001.87
2022-11-03T10:36:15.055Z,1001.83
2022-11-03T10:37:15.055Z,1001.78
2022-11-03T10:38:17.786Z,1001.80
2022-11-03T10:39:15.247Z,1001.78
2022-11-03T10:40:42.079Z,1001.73
2022-11-03T10:41:15.972Z,1001.63
2022-11-03T10:42:14.948Z,1001.60
2022-11-03T10:43:14.964Z,1001.63
2022-11-03T10:44:14.960Z,1001.61
2022-11-03T10:45:14.931Z,1001.55
2022-11-03T10:46:36.553Z,1001.51
2022-11-03T10:47:15.920Z,1001.48
2022-11-03T10:48:15.305Z,1001.45
2022-11-03T10:49:14.894Z,1001.41
2022-11-03T10:50:14.866Z,1001.43
2022-11-03T10:51:14.899Z,1001.35
2022-11-03T10:52:14.849Z,1001.27
2022-11-03T10:53:15.365Z,1001.29
2022-11-03T10:54:14.834Z,1001.36
2022-11-03T10:55:16.996Z,1001.31
2022-11-03T10:56:14.794Z,1001.22
2022-11-03T10:57:14.787Z,1001.21
2022-11-03T10:58:14.802Z,1001.09
2022-11-03T10:59:14.781Z,1001.20
2022-11-03T11:00:14.801Z,1001.19
2022-11-03T11:01:14.946Z,1001.11
2022-11-03T11:02:14.840Z,1001.06
2022-11-03T11:03:17.962Z,1001.08
2022-11-03T11:04:15.855Z,1001.10
2022-11-03T11:05:14.731Z,1001.07
2022-11-03T11:06:14.692Z,1001.07
2022-11-03T11:07:14.669Z,1001.07
2022-11-03T11:08:14.761Z,1001.08
2022-11-03T11:09:14.666Z,1000.98
2022-11-03T11:10:14.762Z,1000.95
2022-11-03T11:11:14.651Z,1000.89
2022-11-03T11:12:14.628Z,1000.85
2022-11-03T11:13:14.605Z,1000.87
2022-11-03T11:14:14.594Z,1000.86
2022-11-03T11:15:14.588Z,1000.97
2022-11-03T11:16:14.579Z,1000.92
2022-11-03T11:17:14.567Z,1000.97
2022-11-03T11:18:14.601Z,1000.93
2022-11-03T11:19:14.548Z,1001.00
2022-11-03T11:20:14.619Z,1001.02
2022-11-03T11:21:14.545Z,1001.04
2022-11-03T11:22:14.507Z,1001.03
2022-11-03T11:23:14.508Z,1000.91
2022-11-03T11:24:14.523Z,1000.95
2022-11-03T11:25:14.471Z,1000.97
2022-11-03T11:26:14.505Z,1001.01
2022-11-03T11:27:14.445Z,1000.99
2022-11-03T11:28:14.445Z,1000.96
2022-11-03T11:29:14.448Z,1000.99
2022-11-03T11:30:14.491Z,1000.93
2022-11-03T11:31:14.403Z,1000.81
2022-11-03T11:32:14.414Z,1000.80
2022-11-03T11:33:14.384Z,1000.68
2022-11-03T11:34:14.374Z,1000.86
2022-11-03T11:35:14.376Z,1000.80
2022-11-03T11:36:14.357Z,1000.81
2022-11-03T11:37:14.352Z,1000.78
2022-11-03T11:38:14.338Z,1000.85
2022-11-03T11:39:14.310Z,1000.85
2022-11-03T11:40:14.380Z,1000.90
2022-11-03T11:41:14.319Z,1000.97
2022-11-03T11:42:14.378Z,1001.01
2022-11-03T11:43:14.279Z,1000.97
2022-11-03T11:44:14.256Z,1000.87
2022-11-03T11:45:14.259Z,1000.76
2022-11-03T11:46:14.233Z,1000.56
2022-11-03T11:47:14.251Z,1000.50
2022-11-03T11:48:18.696Z,1000.62
2022-11-03T11:49:15.204Z,1000.69
2022-11-03T11:50:14.273Z,1000.53
2022-11-03T11:51:14.179Z,1000.53
2022-11-03T11:52:15.570Z,1000.50
2022-11-03T11:53:14.191Z,1000.51
2022-11-03T11:54:18.349Z,1000.42
2022-11-03T11:55:14.135Z,1000.39
2022-11-03T11:56:14.124Z,1000.34
2022-11-03T11:57:14.114Z,1000.34
2022-11-03T11:58:14.097Z,1000.23
2022-11-03T11:59:14.109Z,1000.19
2022-11-03T12:00:14.083Z,1000.16
2022-11-03T12:01:14.214Z,1000.07
2022-11-03T12:02:14.091Z,999.93
2022-11-03T12:03:14.102Z,999.91
2022-11-03T12:04:14.199Z,999.88
2022-11-03T12:05:14.025Z,1000.07
2022-11-03T12:06:14.022Z,1000.01
2022-11-03T12:07:14.033Z,1000.05
2022-11-03T12:08:13.982Z,1000.04
2022-11-03T12:09:14.004Z,999.92